Time;durP1;ratioP1;P1;durP2;ratioP2;P2;SDS_P1;SDS_P2;PMS_P1;PMS_P2;Temp;Humidity;BMP_temperature;BMP_pressure;BME280_temperature;BME280_humidity;BME280_pressure;Samples;Min_cycle;Max_cycle;Signal;HPM_P1;HPM_P2
2022/05/05 00:02:14;;;;;;;21.92;10.18;;;;;;;16.54;100.00;98002.31;4982773;28;20031;-57
2022/05/05 00:04:39;;;;;;;14.48;7.20;;;;;;;16.93;100.00;98000.66;4984030;28;20034;-56
2022/05/05 00:07:05;;;;;;;18.42;9.68;;;;;;;16.53;100.00;97993.56;4983430;28;20612;-56
2022/05/05 00:09:30;;;;;;;23.52;10.70;;;;;;;16.50;100.00;97990.28;4983248;28;20034;-54
2022/05/05 00:14:40;;;;;;;20.25;9.52;;;;;;;16.14;100.00;97999.63;4983712;28;20041;-56
2022/05/05 00:17:09;;;;;;;20.33;10.25;;;;;;;16.14;100.00;97992.56;4983611;28;20042;-55
2022/05/05 00:19:38;;;;;;;18.38;8.68;;;;;;;16.72;100.00;97987.09;4983116;28;20407;-55
2022/05/05 00:22:05;;;;;;;20.65;9.75;;;;;;;16.59;100.00;97987.06;4983290;28;20045;-56
2022/05/05 00:24:31;;;;;;;24.75;11.48;;;;;;;16.38;100.00;98000.69;4983528;28;20034;-54
2022/05/05 00:26:57;;;;;;;18.55;10.38;;;;;;;16.36;100.00;98001.72;4983320;28;20109;-54
2022/05/05 00:29:23;;;;;;;20.10;9.93;;;;;;;16.28;100.00;98001.38;4983321;28;20030;-55
2022/05/05 00:31:49;;;;;;;22.50;8.65;;;;;;;16.00;100.00;97998.69;4982730;28;20038;-54
2022/05/05 00:34:14;;;;;;;17.75;8.57;;;;;;;16.28;100.00;97996.94;4983835;28;20026;-54
2022/05/05 00:36:40;;;;;;;21.00;9.25;;;;;;;15.83;100.00;98000.72;4982802;28;20034;-54
2022/05/05 00:39:07;;;;;;;20.17;9.88;;;;;;;16.02;100.00;97997.78;4983191;28;20034;-54
2022/05/05 00:41:37;;;;;;;17.35;9.05;;;;;;;15.85;100.00;97998.84;4982428;28;20043;-54
2022/05/05 00:44:04;;;;;;;17.25;8.63;;;;;;;16.67;100.00;98000.56;4983898;28;20033;-56
2022/05/05 00:46:30;;;;;;;19.40;7.68;;;;;;;16.93;100.00;97993.59;4982945;28;20104;-55
2022/05/05 00:48:56;;;;;;;19.15;9.70;;;;;;;16.13;100.00;97990.88;4983152;28;20475;-55
2022/05/05 00:51:22;;;;;;;14.48;6.60;;;;;;;16.87;100.00;98001.06;4983231;28;20041;-55
2022/05/05 00:53:47;;;;;;;16.98;8.95;;;;;;;16.52;100.00;97996.28;4983210;28;20038;-55
2022/05/05 00:56:14;;;;;;;21.50;10.30;;;;;;;15.74;100.00;97994.25;4983328;28;20047;-54
2022/05/05 00:58:42;;;;;;;18.90;9.23;;;;;;;15.92;100.00;98002.78;4982960;28;20137;-55
2022/05/05 01:01:08;;;;;;;18.52;9.43;;;;;;;16.12;100.00;97985.69;4982584;28;20046;-53
2022/05/05 01:03:35;;;;;;;18.10;9.38;;;;;;;16.03;100.00;97986.28;4983538;28;20034;-54
2022/05/05 01:06:05;;;;;;;16.13;8.73;;;;;;;16.05;100.00;97987.06;4982854;28;20045;-54
2022/05/05 01:08:33;;;;;;;18.70;8.93;;;;;;;16.03;100.00;97984.53;4985301;28;20023;-55
2022/05/05 01:10:58;;;;;;;16.73;8.43;;;;;;;16.37;100.00;97983.19;4986078;28;20041;-53
2022/05/05 01:13:25;;;;;;;13.10;6.50;;;;;;;16.99;100.00;97989.72;4986666;28;20026;-54
2022/05/05 01:15:51;;;;;;;14.18;6.82;;;;;;;16.68;100.00;97989.06;4986591;28;20121;-54
2022/05/05 01:18:16;;;;;;;16.58;8.45;;;;;;;16.80;100.00;97994.47;4986559;28;20033;-54
2022/05/05 01:20:47;;;;;;;20.48;9.35;;;;;;;15.98;100.00;98002.38;4985808;28;20042;-54
2022/05/05 01:23:13;;;;;;;17.27;8.75;;;;;;;15.30;100.00;98000.41;4986794;28;20034;-54
2022/05/05 01:28:23;;;;;;;13.23;6.50;;;;;;;16.91;100.00;98003.41;4986285;28;20108;-54
2022/05/05 01:30:48;;;;;;;18.08;8.32;;;;;;;16.14;100.00;98005.72;4985611;28;20038;-54
2022/05/05 01:33:21;;;;;;;15.25;7.60;;;;;;;16.28;100.00;98007.47;4986635;28;20022;-54
2022/05/05 01:35:50;;;;;;;14.30;7.03;;;;;;;16.42;100.00;98000.50;4986027;28;20497;-54
2022/05/05 01:38:21;;;;;;;17.17;7.63;;;;;;;15.87;100.00;98010.94;4986401;28;20026;-55
2022/05/05 01:40:46;;;;;;;15.13;7.15;;;;;;;16.38;100.00;98005.94;4985432;28;20572;-54
2022/05/05 01:43:16;;;;;;;16.67;7.97;;;;;;;16.50;100.00;98013.97;4986054;28;20034;-54
2022/05/05 01:45:43;;;;;;;14.27;7.22;;;;;;;16.77;100.00;98019.25;4986068;28;20042;-55
2022/05/05 01:48:09;;;;;;;14.15;6.93;;;;;;;15.95;100.00;98029.75;4986297;28;20026;-56
2022/05/05 01:50:35;;;;;;;14.23;6.78;;;;;;;16.62;100.00;98030.78;4985509;28;20100;-53
2022/05/05 01:53:01;;;;;;;17.10;7.70;;;;;;;15.76;100.00;98044.94;4986223;28;20030;-54
2022/05/05 01:55:27;;;;;;;16.02;7.32;;;;;;;16.08;100.00;98042.09;4985544;28;20638;-55
2022/05/05 01:57:54;;;;;;;14.13;7.75;;;;;;;15.93;100.00;98039.47;4986560;28;20026;-54
2022/05/05 02:00:20;;;;;;;13.63;6.80;;;;;;;16.09;100.00;98041.16;4985001;28;20030;-54
2022/05/05 02:02:46;;;;;;;15.38;7.60;;;;;;;16.08;100.00;98039.47;4985837;28;20022;-54
2022/05/05 02:05:12;;;;;;;14.05;6.18;;;;;;;16.51;100.00;98036.75;4985495;28;20038;-54
2022/05/05 02:07:39;;;;;;;14.57;6.80;;;;;;;16.16;100.00;98037.22;4985563;28;20054;-54
2022/05/05 02:10:06;;;;;;;16.23;8.38;;;;;;;15.68;100.00;98041.91;4985020;28;20562;-54
2022/05/05 02:12:33;;;;;;;17.02;7.88;;;;;;;15.96;100.00;98047.19;4985818;28;20368;-54
2022/05/05 02:14:58;;;;;;;17.23;8.10;;;;;;;15.87;100.00;98044.28;4985252;28;20372;-53
2022/05/05 02:17:24;;;;;;;13.98;6.40;;;;;;;16.43;100.00;98045.16;4984885;28;20641;-55
2022/05/05 02:19:49;;;;;;;15.38;7.80;;;;;;;16.53;100.00;98040.97;4985291;28;20029;-54
2022/05/05 02:22:15;;;;;;;17.25;7.57;;;;;;;16.23;100.00;98043.78;4984942;28;20456;-54
2022/05/05 02:24:41;;;;;;;15.60;7.18;;;;;;;15.72;100.00;98038.16;4985359;28;20474;-55
2022/05/05 02:27:08;;;;;;;12.80;6.63;;;;;;;16.38;100.00;98042.78;4985155;28;20081;-55
2022/05/05 02:29:34;;;;;;;15.80;6.90;;;;;;;16.47;100.00;98043.13;4984958;28;20018;-55
2022/05/05 02:31:59;;;;;;;14.57;7.18;;;;;;;17.12;100.00;98045.91;4984574;28;20400;-54
2022/05/05 02:34:24;;;;;;;17.25;8.25;;;;;;;15.88;100.00;98040.72;4985414;28;20054;-54
2022/05/05 02:39:33;;;;;;;17.35;8.55;;;;;;;16.06;100.00;98047.44;4985013;28;20033;-55
2022/05/05 02:41:58;;;;;;;13.70;7.10;;;;;;;16.66;100.00;98042.81;4984430;28;20030;-55
2022/05/05 02:44:25;;;;;;;14.20;7.97;;;;;;;16.23;100.00;98041.16;4985349;28;20508;-54
2022/05/05 02:46:51;;;;;;;15.30;7.50;;;;;;;16.21;100.00;98050.94;4999073;28;20120;-54
2022/05/05 02:49:16;;;;;;;19.30;7.45;;;;;;;16.15;100.00;98041.59;4983488;28;20128;-54
2022/05/05 02:51:41;;;;;;;12.93;6.93;;;;;;;16.64;100.00;98042.91;4984078;28;20363;-56
2022/05/05 02:56:51;;;;;;;16.52;7.53;;;;;;;17.09;100.00;98032.09;4984084;28;20081;-55
2022/05/05 02:59:16;;;;;;;13.88;6.72;;;;;;;15.98;100.00;98042.66;4985007;28;20022;-54
2022/05/05 03:01:41;;;;;;;14.77;7.82;;;;;;;16.84;100.00;98038.16;4984149;28;20490;-56
2022/05/05 03:04:07;;;;;;;16.45;7.53;;;;;;;16.54;100.00;98033.91;4984498;28;20035;-56
2022/05/05 03:06:32;;;;;;;18.90;7.28;;;;;;;16.43;100.00;98028.50;4984155;28;20031;-54
2022/05/05 03:08:57;;;;;;;19.08;8.30;;;;;;;16.62;100.00;98031.63;4984445;28;20038;-55
2022/05/05 03:11:23;;;;;;;16.35;7.22;;;;;;;16.71;100.00;98032.81;4983941;28;20026;-55
2022/05/05 03:13:48;;;;;;;17.63;8.07;;;;;;;16.00;100.00;98043.41;4984423;28;20117;-55
2022/05/05 03:16:14;;;;;;;15.77;7.93;;;;;;;16.34;100.00;98043.94;4984144;28;20053;-56
2022/05/05 03:18:40;;;;;;;15.13;7.97;;;;;;;16.36;100.00;98039.41;4984427;28;20518;-54
2022/05/05 03:21:06;;;;;;;17.20;7.85;;;;;;;16.51;100.00;98036.75;4983285;28;20034;-55
2022/05/05 03:23:31;;;;;;;18.15;8.52;;;;;;;15.92;100.00;98040.44;4984455;28;20102;-54
2022/05/05 03:25:57;;;;;;;9.88;5.13;;;;;;;16.76;100.00;98031.56;4983787;28;20042;-54
2022/05/05 03:28:22;;;;;;;14.68;6.88;;;;;;;16.37;100.00;98038.47;4971514;28;20030;-56
2022/05/05 03:30:49;;;;;;;13.27;6.75;;;;;;;16.87;100.00;98037.94;4983266;28;20539;-55
2022/05/05 03:33:14;;;;;;;18.40;8.82;;;;;;;16.67;100.00;98039.22;4984396;28;20030;-57
2022/05/05 03:35:40;;;;;;;14.60;7.53;;;;;;;16.67;100.00;98032.19;4983886;28;20042;-55
2022/05/05 03:38:05;;;;;;;14.48;7.75;;;;;;;16.71;100.00;98038.94;4984347;28;20030;-55
2022/05/05 03:40:30;;;;;;;19.60;9.30;;;;;;;16.09;100.00;98038.53;4983410;28;20030;-55
2022/05/05 03:42:56;;;;;;;19.00;8.60;;;;;;;16.18;100.00;98035.31;4983771;28;20026;-55
2022/05/05 03:45:21;;;;;;;16.63;7.85;;;;;;;16.40;100.00;98034.81;4983464;28;20130;-54
2022/05/05 03:47:46;;;;;;;12.68;5.82;;;;;;;17.07;100.00;98037.44;4983999;28;20594;-55
2022/05/05 03:50:12;;;;;;;18.17;9.20;;;;;;;16.26;100.00;98038.31;4983053;28;20555;-55
2022/05/05 03:52:37;;;;;;;17.77;9.73;;;;;;;15.70;100.00;98040.06;4983998;28;20024;-56
2022/05/05 03:55:03;;;;;;;18.40;10.27;;;;;;;15.96;100.00;98047.19;4983549;28;20038;-56
2022/05/05 03:57:28;;;;;;;17.58;8.18;;;;;;;16.20;100.00;98043.97;4982976;28;20030;-54
2022/05/05 03:59:53;;;;;;;15.02;8.23;;;;;;;16.08;100.00;98048.22;4983623;28;20030;-54
2022/05/05 04:02:19;;;;;;;14.25;7.82;;;;;;;16.77;100.00;98038.50;4983328;28;20029;-53
2022/05/05 04:04:44;;;;;;;16.85;8.70;;;;;;;17.06;100.00;98041.06;4983052;28;20145;-54
2022/05/05 04:07:09;;;;;;;16.30;8.00;;;;;;;16.97;100.00;98044.31;4982756;28;20034;-55
2022/05/05 04:09:35;;;;;;;14.73;7.38;;;;;;;17.04;100.00;98050.84;4983456;28;20030;-55
2022/05/05 04:12:00;;;;;;;15.30;7.13;;;;;;;17.29;100.00;98054.47;4981566;28;20058;-55
2022/05/05 04:14:25;;;;;;;19.92;9.52;;;;;;;16.80;100.00;98063.81;4983538;28;20026;-55
2022/05/05 04:16:51;;;;;;;19.27;8.70;;;;;;;16.76;100.00;98060.56;4982794;28;20403;-55
2022/05/05 04:19:17;;;;;;;16.98;7.97;;;;;;;16.70;100.00;98060.94;4983642;28;20037;-55
2022/05/05 04:21:42;;;;;;;19.45;8.48;;;;;;;16.89;100.00;98063.25;4982549;28;20066;-56
2022/05/05 04:24:07;;;;;;;20.00;9.75;;;;;;;16.26;100.00;98062.00;4983862;28;20027;-54
2022/05/05 04:26:33;;;;;;;22.33;9.50;;;;;;;16.35;100.00;98071.94;4982914;28;20117;-54
2022/05/05 04:28:58;;;;;;;20.65;8.48;;;;;;;17.01;100.00;98060.75;4983279;28;20108;-56
2022/05/05 04:31:28;;;;;;;22.35;8.85;;;;;;;17.01;100.00;98064.22;4982543;28;20042;-54
2022/05/05 04:33:53;;;;;;;25.02;8.65;;;;;;;16.86;100.00;98067.88;4982927;28;20045;-55
2022/05/05 04:36:19;;;;;;;19.98;7.82;;;;;;;17.20;100.00;98070.91;4983119;28;20385;-55
2022/05/05 04:38:44;;;;;;;15.48;6.57;;;;;;;17.72;100.00;98067.38;4983105;28;20026;-54
2022/05/05 04:41:09;;;;;;;23.80;9.38;;;;;;;17.36;100.00;98068.09;4982305;28;20044;-55
2022/05/05 04:43:35;;;;;;;24.48;9.98;;;;;;;16.59;100.00;98076.59;4985295;28;20041;-55
2022/05/05 04:46:00;;;;;;;25.63;10.10;;;;;;;17.70;100.00;98079.81;4986455;28;20109;-55
2022/05/05 04:48:26;;;;;;;29.10;10.93;;;;;;;17.27;100.00;98088.84;4987347;28;20037;-55
2022/05/05 04:50:51;;;;;;;30.42;10.98;;;;;;;17.06;100.00;98104.28;4986435;28;20050;-56
2022/05/05 04:53:16;;;;;;;38.00;11.98;;;;;;;16.97;100.00;98104.91;4987407;28;20958;-57
2022/05/05 04:55:42;;;;;;;39.67;12.10;;;;;;;16.35;100.00;98110.59;4985903;28;20408;-54
2022/05/05 04:58:07;;;;;;;35.45;12.57;;;;;;;16.97;100.00;98112.81;4985326;28;20161;-57
2022/05/05 05:00:33;;;;;;;34.25;11.65;;;;;;;16.59;100.00;98121.34;4985046;28;20105;-55
2022/05/05 05:02:58;;;;;;;41.17;12.77;;;;;;;16.68;100.00;98107.59;4986939;28;20133;-54
2022/05/05 05:05:24;;;;;;;41.97;11.82;;;;;;;17.01;100.00;98109.00;4986665;28;20176;-54
2022/05/05 05:07:49;;;;;;;41.50;13.93;;;;;;;16.54;100.00;98115.53;4987218;28;20038;-56
2022/05/05 05:10:15;;;;;;;51.70;13.70;;;;;;;16.86;100.00;98112.66;4986045;28;20412;-54
2022/05/05 05:12:40;;;;;;;38.60;13.25;;;;;;;16.88;100.00;98111.59;4986904;28;20129;-55
2022/05/05 05:15:07;;;;;;;46.63;13.32;;;;;;;17.47;100.00;98113.88;4985172;28;20030;-56
2022/05/05 05:17:32;;;;;;;39.25;12.98;;;;;;;17.15;100.00;98110.75;4985806;28;20054;-57
2022/05/05 05:19:58;;;;;;;41.28;13.40;;;;;;;17.33;100.00;98113.94;4986258;28;20034;-57
2022/05/05 05:22:23;;;;;;;48.92;13.15;;;;;;;17.31;100.00;98114.06;4985919;28;20042;-56
2022/05/05 05:24:48;;;;;;;34.17;12.02;;;;;;;17.91;100.00;98110.00;4986535;28;20100;-56
2022/05/05 05:27:14;;;;;;;38.45;12.30;;;;;;;17.32;100.00;98117.53;4985743;28;20047;-55
2022/05/05 05:29:39;;;;;;;35.30;12.52;;;;;;;17.29;100.00;98128.28;4986190;28;20040;-55
2022/05/05 05:32:05;;;;;;;34.70;12.05;;;;;;;17.19;100.00;98121.94;4986296;28;20045;-56
2022/05/05 05:34:30;;;;;;;29.80;9.90;;;;;;;17.41;100.00;98127.47;4986400;28;20026;-56
2022/05/05 05:36:56;;;;;;;29.50;10.23;;;;;;;17.41;100.00;98127.47;4985895;28;20081;-55
2022/05/05 05:39:22;;;;;;;29.80;9.90;;;;;;;17.66;100.00;98124.03;4985578;28;20053;-55
2022/05/05 05:41:47;;;;;;;39.00;11.70;;;;;;;17.77;100.00;98123.28;4985424;28;20030;-56
2022/05/05 05:44:13;;;;;;;45.45;14.00;;;;;;;17.83;100.00;98122.88;4986313;28;20475;-56
2022/05/05 05:46:38;;;;;;;44.40;13.07;;;;;;;17.71;100.00;98131.63;4985516;28;20070;-55
2022/05/05 05:49:05;;;;;;;38.72;12.70;;;;;;;17.34;100.00;98128.81;4986315;28;20026;-55
2022/05/05 05:51:31;;;;;;;44.67;13.63;;;;;;;18.07;100.00;98128.28;4985375;28;20030;-56
2022/05/05 05:53:56;;;;;;;48.17;14.70;;;;;;;18.06;100.00;98139.78;4985676;28;20415;-56
2022/05/05 05:56:22;;;;;;;63.17;16.52;;;;;;;17.36;100.00;98134.84;4984789;28;20492;-55
2022/05/05 05:58:47;;;;;;;42.85;12.80;;;;;;;18.06;100.00;98133.66;4985920;28;20030;-55
2022/05/05 06:01:12;;;;;;;32.03;11.23;;;;;;;18.33;100.00;98136.16;4985475;28;20027;-56
2022/05/05 06:03:56;;;;;;;37.60;14.30;;;;;;;17.76;100.00;98145.34;4985762;28;20027;-56
2022/05/05 06:06:23;;;;;;;33.72;12.73;;;;;;;18.16;100.00;98141.78;4984824;28;20045;-59
2022/05/05 06:08:49;;;;;;;43.03;14.77;;;;;;;17.86;100.00;98143.78;4985904;28;20035;-56
2022/05/05 06:11:17;;;;;;;38.28;15.23;;;;;;;18.14;100.00;98147.19;4985236;28;20034;-56
2022/05/05 06:13:42;;;;;;;52.92;16.88;;;;;;;18.29;100.00;98150.53;4985785;28;20022;-57
2022/05/05 06:16:09;;;;;;;43.03;18.42;;;;;;;17.90;100.00;98140.00;4985036;28;20045;-56
2022/05/05 06:18:39;;;;;;;39.70;17.92;;;;;;;17.83;100.00;98148.38;4985530;28;20109;-58
2022/05/05 06:21:05;;;;;;;42.60;18.17;;;;;;;18.78;100.00;98148.84;4984532;28;20622;-57
2022/05/05 06:23:31;;;;;;;34.85;15.93;;;;;;;19.09;100.00;98151.94;4985431;28;20041;-56
2022/05/05 06:25:56;;;;;;;31.08;13.95;;;;;;;18.86;100.00;98160.56;4984828;28;20038;-56
2022/05/05 06:28:22;;;;;;;26.65;13.05;;;;;;;19.12;100.00;98159.63;4985265;28;20116;-57
2022/05/05 06:30:47;;;;;;;32.05;16.83;;;;;;;18.82;100.00;98159.13;4984860;28;20050;-57
2022/05/05 06:33:12;;;;;;;35.30;16.60;;;;;;;18.15;100.00;98159.41;4985195;28;20030;-56
2022/05/05 06:35:38;;;;;;;30.90;15.80;;;;;;;17.83;100.00;98154.53;4984911;28;20111;-58
2022/05/05 06:38:03;;;;;;;32.53;16.67;;;;;;;18.11;100.00;98158.78;4984656;28;20590;-57
2022/05/05 06:40:29;;;;;;;30.70;14.93;;;;;;;18.72;100.00;98151.94;4984609;28;20086;-56
2022/05/05 06:42:54;;;;;;;34.72;15.85;;;;;;;18.10;100.00;98156.25;4983571;28;20026;-56
2022/05/05 06:45:19;;;;;;;34.60;16.42;;;;;;;18.23;100.00;98157.09;4984718;28;20034;-56
2022/05/05 06:47:45;;;;;;;28.27;14.88;;;;;;;18.89;100.00;98154.22;4984613;28;20089;-56
2022/05/05 06:50:11;;;;;;;30.60;14.32;;;;;;;18.48;100.00;98163.28;4982719;28;20054;-56
2022/05/05 06:52:36;;;;;;;31.30;15.02;;;;;;;17.87;100.00;98163.94;4984931;28;20859;-56
2022/05/05 06:55:03;;;;;;;29.08;14.75;;;;;;;18.63;100.00;98162.19;4984727;28;20038;-57
2022/05/05 06:57:29;;;;;;;22.70;9.73;;;;;;;19.36;100.00;98162.25;4984011;28;20042;-56
2022/05/05 06:59:54;;;;;;;27.67;13.23;;;;;;;18.78;100.00;98160.25;4984732;28;20033;-56
2022/05/05 07:02:19;;;;;;;31.45;15.40;;;;;;;18.86;100.00;98165.03;4984054;28;20039;-56
2022/05/05 07:07:29;;;;;;;29.17;14.60;;;;;;;18.95;100.00;98164.34;4983207;28;20066;-56
2022/05/05 07:12:38;;;;;;;28.20;14.35;;;;;;;18.73;100.00;98164.16;4984551;28;20048;-55
2022/05/05 07:15:04;;;;;;;28.45;13.48;;;;;;;18.49;100.00;98170.28;4984008;28;20026;-56
2022/05/05 07:17:30;;;;;;;30.08;14.85;;;;;;;18.62;100.00;98173.72;4983437;28;20048;-55
2022/05/05 07:19:55;;;;;;;30.98;14.40;;;;;;;19.12;100.00;98175.50;4984621;28;20062;-56
2022/05/05 07:22:20;;;;;;;32.92;16.38;;;;;;;18.29;100.00;98167.22;4983810;28;20137;-55
2022/05/05 07:24:46;;;;;;;26.67;13.77;;;;;;;19.38;100.00;98171.75;4984498;28;20064;-56
2022/05/05 07:27:12;;;;;;;27.77;14.80;;;;;;;19.42;100.00;98173.22;4984119;28;20043;-55
2022/05/05 07:29:37;;;;;;;24.75;12.93;;;;;;;19.15;100.00;98173.47;4984388;28;20037;-57
2022/05/05 07:32:04;;;;;;;25.02;13.02;;;;;;;19.31;100.00;98178.47;4983781;28;20041;-57
2022/05/05 07:34:29;;;;;;;21.33;10.80;;;;;;;19.74;100.00;98171.78;4984264;28;20061;-56
2022/05/05 07:36:55;;;;;;;26.33;13.55;;;;;;;19.78;100.00;98174.09;4983902;28;20066;-56
2022/05/05 07:39:20;;;;;;;27.65;13.70;;;;;;;19.89;100.00;98183.00;4984337;28;20034;-56
2022/05/05 07:41:45;;;;;;;26.52;13.32;;;;;;;19.58;100.00;98185.31;4983625;28;20034;-58
2022/05/05 07:44:11;;;;;;;25.83;13.85;;;;;;;19.33;100.00;98189.78;4984425;28;20041;-56
2022/05/05 07:46:36;;;;;;;23.48;11.98;;;;;;;19.71;100.00;98196.66;4983251;28;20042;-56
2022/05/05 07:49:04;;;;;;;19.17;10.32;;;;;;;20.11;100.00;98195.47;4984146;28;20034;-55
2022/05/05 07:51:30;;;;;;;22.83;10.95;;;;;;;19.97;100.00;98193.88;4997984;28;20038;-57
2022/05/05 07:56:40;;;;;;;24.05;13.38;;;;;;;20.47;100.00;98191.72;4982537;28;20049;-55
2022/05/05 07:59:06;;;;;;;24.20;13.20;;;;;;;20.25;100.00;98199.69;4984271;28;20029;-56
2022/05/05 08:01:31;;;;;;;23.42;13.20;;;;;;;21.49;100.00;98202.22;4982327;28;20061;-57
2022/05/05 08:03:57;;;;;;;24.17;13.65;;;;;;;21.94;100.00;98208.13;4983461;28;20574;-55
2022/05/05 08:06:22;;;;;;;20.70;11.63;;;;;;;22.91;100.00;98205.13;4983013;28;20072;-55
2022/05/05 08:08:48;;;;;;;26.50;13.95;;;;;;;20.63;100.00;98195.88;4983098;28;20733;-56
2022/05/05 08:11:14;;;;;;;25.00;13.82;;;;;;;20.35;100.00;98208.63;4981544;28;20118;-57
2022/05/05 08:13:39;;;;;;;20.60;11.80;;;;;;;22.47;100.00;98198.41;4982045;28;20128;-56
2022/05/05 08:16:05;;;;;;;26.63;13.52;;;;;;;20.33;100.00;98211.38;4982388;28;20042;-56
2022/05/05 08:18:31;;;;;;;23.67;13.13;;;;;;;21.16;100.00;98210.13;4983254;28;20026;-57
2022/05/05 08:20:56;;;;;;;25.35;13.18;;;;;;;21.26;100.00;98210.22;4982627;28;20127;-57
2022/05/05 08:23:22;;;;;;;23.25;13.27;;;;;;;20.98;100.00;98207.16;4983355;28;20030;-56
2022/05/05 08:28:33;;;;;;;22.42;12.73;;;;;;;24.13;90.83;98212.78;4983266;28;20065;-57
2022/05/05 08:30:59;;;;;;;22.80;13.07;;;;;;;25.76;79.46;98212.25;4982798;28;20060;-57
2022/05/05 08:33:27;;;;;;;19.92;11.60;;;;;;;26.02;72.82;98216.81;4983322;28;20065;-58
2022/05/05 08:35:54;;;;;;;17.55;11.43;;;;;;;28.75;57.56;98218.13;4982916;28;20129;-58
2022/05/05 08:38:20;;;;;;;21.05;11.48;;;;;;;30.53;48.29;98224.28;4983269;28;20030;-57
2022/05/05 08:40:47;;;;;;;16.17;10.32;;;;;;;29.27;51.32;98225.59;4982950;28;20045;-56
2022/05/05 08:43:12;;;;;;;14.25;10.23;;;;;;;28.11;54.12;98231.47;4983190;28;20018;-55
2022/05/05 08:45:39;;;;;;;14.57;9.48;;;;;;;29.06;51.55;98236.94;4983268;28;20038;-55
2022/05/05 08:48:10;;;;;;;14.82;9.38;;;;;;;28.74;49.69;98236.06;4982963;28;20703;-57
2022/05/05 08:50:36;;;;;;;;;;;;;;;28.93;50.46;98237.50;4983135;28;20038;-57
2022/05/05 08:53:03;;;;;;;11.77;7.20;;;;;;;29.99;48.68;98227.13;4983216;28;20362;-57
2022/05/05 08:55:30;;;;;;;14.90;8.32;;;;;;;29.42;49.01;98226.50;4981952;28;20036;-58
2022/05/05 08:57:56;;;;;;;10.32;6.93;;;;;;;33.33;42.03;98225.16;4983137;28;20037;-57
2022/05/05 09:00:21;;;;;;;9.95;6.78;;;;;;;31.67;42.42;98225.66;4982462;28;20034;-57
2022/05/05 09:02:53;;;;;;;13.98;8.00;;;;;;;30.61;43.64;98217.13;4983197;28;20438;-56
2022/05/05 09:05:42;;;;;;;11.18;7.50;;;;;;;31.33;42.75;98209.13;4982672;28;20026;-57
2022/05/05 09:08:09;;;;;;;10.38;6.30;;;;;;;32.48;41.03;98217.25;4979099;28;20038;-57
2022/05/05 09:10:43;;;;;;;7.57;5.80;;;;;;;33.42;38.86;98213.13;4982454;28;20484;-56
2022/05/05 09:13:08;;;;;;;10.02;5.50;;;;;;;33.74;38.41;98210.69;4985376;28;20022;-55
2022/05/05 09:15:36;;;;;;;8.48;5.82;;;;;;;33.02;39.01;98218.34;4982510;28;20038;-60
2022/05/05 09:18:21;;;;;;;7.13;5.57;;;;;;;32.04;39.19;98205.72;4982889;28;20084;-56
2022/05/05 09:20:48;;;;;;;9.88;5.95;;;;;;;32.79;38.85;98208.72;4982352;28;20717;-56
2022/05/05 09:23:34;;;;;;;8.10;5.63;;;;;;;31.94;39.96;98212.44;4983009;28;20037;-57
2022/05/05 09:26:01;;;;;;;12.10;6.10;;;;;;;31.75;40.07;98213.94;4982248;28;20085;-57
2022/05/05 09:28:30;;;;;;;9.63;5.68;;;;;;;29.63;42.57;98211.59;4983217;28;20034;-55
2022/05/05 09:31:01;;;;;;;8.90;5.30;;;;;;;29.70;42.84;98204.50;4985868;28;20058;-57
2022/05/05 09:33:38;;;;;;;7.22;4.57;;;;;;;28.02;44.12;98211.88;4986076;28;20037;-55
2022/05/05 09:36:10;;;;;;;8.95;5.00;;;;;;;28.92;43.78;98208.97;4986024;28;20050;-56
2022/05/05 09:38:54;;;;;;;10.57;5.47;;;;;;;26.83;47.22;98215.63;4985729;28;20870;-56
2022/05/05 09:41:28;;;;;;;7.82;5.00;;;;;;;27.71;44.89;98220.56;4985898;28;20053;-56
2022/05/05 09:43:56;;;;;;;7.30;4.75;;;;;;;26.96;49.99;98210.66;4986151;28;20034;-56
2022/05/05 09:46:27;;;;;;;11.32;6.30;;;;;;;26.20;51.73;98206.91;4985634;28;20847;-55
2022/05/05 09:48:53;;;;;;;9.10;5.60;;;;;;;25.16;59.58;98215.47;4985747;28;20791;-55
2022/05/05 09:51:18;;;;;;;12.55;5.25;;;;;;;26.24;57.19;98205.59;4985712;28;20356;-55
2022/05/05 09:59:19;;;;;;;10.35;6.63;;;;;;;23.82;73.51;98209.47;4985467;28;20099;-56
2022/05/05 10:01:50;;;;;;;9.10;5.90;;;;;;;23.38;76.52;98217.84;4985467;28;20031;-55
2022/05/05 10:04:18;;;;;;;10.70;6.45;;;;;;;23.81;75.38;98223.78;4985699;28;20081;-55
2022/05/05 10:06:44;;;;;;;10.30;6.13;;;;;;;23.42;75.60;98234.41;4985014;28;20041;-57
2022/05/05 10:09:14;;;;;;;12.20;6.50;;;;;;;23.85;74.06;98228.66;4985897;28;20026;-57
2022/05/05 10:11:41;;;;;;;19.38;6.45;;;;;;;22.89;76.65;98232.84;4984871;28;20027;-57
2022/05/05 10:14:09;;;;;;;13.15;6.05;;;;;;;24.60;70.97;98233.31;4985623;28;20407;-57
2022/05/05 10:16:37;;;;;;;14.45;5.90;;;;;;;23.96;73.86;98232.16;4984839;28;20508;-56
2022/05/05 10:19:03;;;;;;;9.35;5.00;;;;;;;23.19;70.88;98234.63;4985385;28;20048;-58
2022/05/05 10:21:50;;;;;;;9.50;5.03;;;;;;;23.19;70.69;98229.28;4984680;28;20125;-56
2022/05/05 10:24:25;;;;;;;11.20;5.07;;;;;;;24.48;70.00;98221.09;4984948;28;20102;-57
2022/05/05 10:26:55;;;;;;;9.95;5.00;;;;;;;24.36;62.95;98221.28;4984688;28;20074;-56
2022/05/05 10:29:35;;;;;;;11.05;5.28;;;;;;;23.31;69.14;98219.38;4984595;28;20032;-56
2022/05/05 10:32:07;;;;;;;11.50;5.40;;;;;;;24.52;66.81;98227.81;4984951;28;20034;-56
2022/05/05 10:34:33;;;;;;;;;;;;;;;24.66;67.13;98219.38;4985683;28;20104;-56
2022/05/05 10:37:01;;;;;;;9.57;5.38;;;;;;;25.62;62.23;98216.28;4984903;28;19957;-56
2022/05/05 10:39:43;;;;;;;9.50;5.30;;;;;;;27.21;58.23;98213.44;4984750;28;20444;-57
2022/05/05 10:42:36;;;;;;;9.00;5.40;;;;;;;26.51;56.92;98217.13;4984394;28;20046;-57
2022/05/05 10:45:05;;;;;;;10.32;5.50;;;;;;;25.14;59.54;98215.59;4984511;28;20034;-58
2022/05/05 10:47:52;;;;;;;10.88;5.40;;;;;;;25.15;60.95;98214.63;4984468;28;20038;-58
2022/05/05 10:50:39;;;;;;;13.43;6.43;;;;;;;23.32;68.51;98213.06;4983969;28;20109;-57
2022/05/05 10:53:07;;;;;;;9.80;6.18;;;;;;;25.41;61.23;98205.91;4985052;28;20018;-57
2022/05/05 10:55:42;;;;;;;12.95;6.25;;;;;;;25.77;60.66;98206.75;4983709;28;20034;-57
2022/05/05 10:58:10;;;;;;;9.95;6.13;;;;;;;24.88;64.63;98201.31;4985139;28;20038;-56
2022/05/05 11:00:43;;;;;;;9.73;6.05;;;;;;;25.14;63.37;98207.59;4983648;28;20144;-57
2022/05/05 11:03:09;;;;;;;13.35;6.38;;;;;;;25.40;59.34;98201.56;4984665;28;20037;-56
2022/05/05 11:05:36;;;;;;;10.27;6.40;;;;;;;25.26;59.49;98202.09;4983865;28;20042;-57
2022/05/05 11:13:41;;;;;;;10.95;6.32;;;;;;;24.88;61.53;98193.31;4984798;28;20052;-56
2022/05/05 11:22:18;;;;;;;12.35;6.25;;;;;;;26.27;57.99;98189.25;4983860;28;20519;-56
2022/05/05 11:24:46;;;;;;;13.57;7.40;;;;;;;25.30;62.21;98198.13;4984274;28;20081;-56
2022/05/05 11:27:16;;;;;;;12.05;7.28;;;;;;;25.66;62.38;98185.63;4983901;28;20062;-56
2022/05/05 11:29:50;;;;;;;11.23;6.75;;;;;;;27.24;56.66;98188.97;4983853;28;20110;-56
2022/05/05 11:32:17;;;;;;;10.30;6.30;;;;;;;25.91;60.01;98189.31;4983565;28;20034;-56
2022/05/05 11:34:45;;;;;;;10.13;6.60;;;;;;;26.29;54.54;98191.78;4983793;28;20034;-57
2022/05/05 11:37:11;;;;;;;9.38;5.60;;;;;;;27.05;49.48;98192.78;4983262;28;20137;-57
2022/05/05 11:39:37;;;;;;;10.88;5.47;;;;;;;27.14;47.85;98197.16;4987500;28;20030;-56
2022/05/05 11:42:05;;;;;;;9.82;6.00;;;;;;;25.50;55.10;98191.66;4983364;28;20069;-57
2022/05/05 11:44:32;;;;;;;10.68;6.20;;;;;;;25.19;55.66;98191.97;4984072;28;20043;-57
2022/05/05 11:47:09;;;;;;;12.27;5.57;;;;;;;27.69;51.11;98179.69;4982073;28;20042;-56
2022/05/05 11:49:35;;;;;;;9.27;5.38;;;;;;;27.64;50.16;98180.22;4983424;28;20084;-57
2022/05/05 11:52:00;;;;;;;7.93;4.93;;;;;;;26.54;51.09;98182.88;4982981;28;20046;-57
2022/05/05 11:54:32;;;;;;;9.90;4.90;;;;;;;26.92;48.83;98177.19;4983829;28;20073;-57
2022/05/05 11:56:58;;;;;;;8.40;4.80;;;;;;;26.82;47.67;98179.19;4982951;28;20038;-58